Torre De Belem — CSIO — position and weather

sailwx.info

Track history (hours):
 
Tides and Currents Weather Stations Pressure Air Temp Water Temp Dewpoint Dewpoint Depression Visibility Wind Speed Wind Dir Waves Ship Positions

Torre De Belem

Last reported at 2018-Jan-23 09:10 UTC. Time now 2018-Jan-23 10:12 UTC.
Position N 38°42' W 009°25'.

Length 14 m.

MMSI: 263671850.

Date/timePositionNaut miles runAvg speedWind from/ knotsBaromVisibWave heightAir tempDewpointWater temp
2018-Jan-23 09:10N 38°42' W 009°25'210.8
2018-Jan-23 09:00N 38°40' W 009°24'3 5.7
2018-Jan-23 08:30N 38°39' W 009°21'4 8.5
2018-Jan-23 08:00N 38°42' W 009°25'0 0.0
2018-Jan-23 07:30N 38°42' W 009°25'0 0.0
2018-Jan-23 06:59N 38°42' W 009°25'0 0.0
2018-Jan-23 06:30N 38°42' W 009°25'0 0.0
2018-Jan-23 06:00N 38°42' W 009°25'1 2.5
2018-Jan-23 05:31N 38°40' W 009°25'1 2.5
2018-Jan-23 05:00N 38°42' W 009°25'0 0.0
2018-Jan-23 04:30N 38°42' W 009°25'0 0.0
2018-Jan-23 04:00N 38°42' W 009°25'0 0.0
2018-Jan-23 03:28N 38°42' W 009°25'0 0.0
2018-Jan-23 03:00N 38°42' W 009°25'0 0.0
2018-Jan-23 02:30N 38°42' W 009°25'0 0.0
2018-Jan-23 01:59N 38°42' W 009°25'0 0.0
2018-Jan-23 01:29N 38°42' W 009°25'0 0.0
2018-Jan-23 01:00N 38°42' W 009°25'0 0.0
2018-Jan-23 00:30N 38°42' W 009°25'0 0.0
2018-Jan-23 00:00N 38°42' W 009°25'5 9.8
2018-Jan-22 23:30N 38°38' W 009°21'5 9.7
2018-Jan-22 23:00N 38°42' W 009°25'0 0.0
2018-Jan-22 10:11N 38°42' W 009°25'0 0.7
2018-Jan-22 10:00N 38°42' W 009°25'4 8.5
2018-Jan-22 09:30N 38°37' W 009°24'917.4
2018-Jan-22 09:00N 38°42' W 009°14'0 0.0
2018-Jan-22 06:48N 38°42' W 009°14'0 0.0
2018-Jan-22 06:30N 38°42' W 009°14'0 0.2
2018-Jan-22 06:01N 38°42' W 009°14'918.0
2018-Jan-22 05:30N 38°36' W 009°23'714.4
2018-Jan-22 05:00N 38°41' W 009°16'2 3.7
2018-Jan-22 04:30N 38°42' W 009°14'0 0.0
2018-Jan-22 04:00N 38°42' W 009°14'0 0.0
2018-Jan-22 03:30N 38°42' W 009°14'0 0.0
2018-Jan-22 02:59N 38°42' W 009°14'0 0.0
2018-Jan-22 02:27N 38°42' W 009°14'0 0.0
2018-Jan-22 02:00N 38°42' W 009°14'0 0.0
2018-Jan-22 01:30N 38°42' W 009°14'0 0.0
2018-Jan-22 01:00N 38°42' W 009°14'0 0.0
2018-Jan-22 00:30N 38°42' W 009°14'0 0.0
2018-Jan-22 00:00N 38°42' W 009°14'1 1.8
2018-Jan-21 23:31N 38°41' W 009°13'1 1.7
2018-Jan-21 22:59N 38°42' W 009°14'0 0.0
2018-Jan-21 22:30N 38°42' W 009°14'0 0.0
2018-Jan-21 06:58N 38°42' W 009°14'511.3
2018-Jan-21 06:30N 38°39' W 009°20'3 5.0
2018-Jan-21 06:00N 38°38' W 009°23'4 0.4
2018-Jan-20 20:46N 38°42' W 009°25'2 9.6
2018-Jan-20 20:30N 38°39' W 009°25'2 0.7
2018-Jan-20 16:50N 38°42' W 009°25'413.1
2018-Jan-20 16:30N 38°37' W 009°24'4 0.2
2018-Jan-19 18:03N 38°42' W 009°25'0 0.0
2018-Jan-19 18:00N 38°42' W 009°25'1 2.4
2018-Jan-19 17:30N 38°40' W 009°24'1 2.4
2018-Jan-19 17:00N 38°42' W 009°25'0 0.0
2018-Jan-19 16:31N 38°42' W 009°25'0 0.0
2018-Jan-19 16:00N 38°42' W 009°25'5 9.4
2018-Jan-19 15:31N 38°37' W 009°22'5 9.2
2018-Jan-19 15:00N 38°42' W 009°25'0 0.0
2018-Jan-19 07:57N 38°42' W 009°25'1 3.1
2018-Jan-19 07:30N 38°40' W 009°24'1 2.7
2018-Jan-19 07:01N 38°42' W 009°25'0 0.0
2018-Jan-19 02:22N 38°42' W 009°25'3 7.9
2018-Jan-19 02:00N 38°39' W 009°25'3 6.0
2018-Jan-19 01:30N 38°42' W 009°25'0 0.0
2018-Jan-18 21:20N 38°42' W 009°25'2 6.5
2018-Jan-18 21:00N 38°39' W 009°25'2 4.5
2018-Jan-18 20:30N 38°42' W 009°25'1 2.0
2018-Jan-18 20:00N 38°41' W 009°25'1 0.2
2018-Jan-18 16:34N 38°42' W 009°25'0 3.3
2018-Jan-18 16:30N 38°42' W 009°25'816.9
2018-Jan-18 16:00N 38°42' W 009°14'0 0.2
2018-Jan-18 15:28N 38°42' W 009°14'0 0.0
2018-Jan-18 14:59N 38°42' W 009°14'0 0.0
2018-Jan-18 14:29N 38°42' W 009°14'0 0.0
2018-Jan-18 14:00N 38°42' W 009°14'3 5.6
2018-Jan-18 13:29N 38°42' W 009°10'2 4.5
2018-Jan-18 13:01N 38°41' W 009°13'1 2.0
2018-Jan-18 12:29N 38°42' W 009°14'0 0.0
2018-Jan-18 12:00N 38°42' W 009°14'0 0.0
2018-Jan-18 11:30N 38°42' W 009°14'0 0.0
2018-Jan-18 11:00N 38°42' W 009°14'0 0.0
2018-Jan-18 10:29N 38°42' W 009°14'0 0.0
2018-Jan-18 10:00N 38°42' W 009°14'0 0.0
2018-Jan-18 09:29N 38°42' W 009°14'0 0.0
2018-Jan-18 08:56N 38°42' W 009°14'1 3.3
2018-Jan-18 08:30N 38°42' W 009°12'  
Track history (hours):
 
Tides and Currents Weather Stations Pressure Air Temp Water Temp Dewpoint Dewpoint Depression Visibility Wind Speed Wind Dir Waves Ship Positions

Torre De Belem

Last reported at 2018-Jan-23 09:10 UTC. Time now 2018-Jan-23 10:12 UTC.
Position N 38°42' W 009°25'.

Length 14 m.

MMSI: 263671850.

Date/timePositionNaut miles runAvg speedWind from/ knotsBaromVisibWave heightAir tempDewpointWater temp
2018-Jan-23 09:10N 38°42' W 009°25'210.8
2018-Jan-23 09:00N 38°40' W 009°24'3 5.7
2018-Jan-23 08:30N 38°39' W 009°21'4 8.5
2018-Jan-23 08:00N 38°42' W 009°25'0 0.0
2018-Jan-23 07:30N 38°42' W 009°25'0 0.0
2018-Jan-23 06:59N 38°42' W 009°25'0 0.0
2018-Jan-23 06:30N 38°42' W 009°25'0 0.0
2018-Jan-23 06:00N 38°42' W 009°25'1 2.5
2018-Jan-23 05:31N 38°40' W 009°25'1 2.5
2018-Jan-23 05:00N 38°42' W 009°25'0 0.0
2018-Jan-23 04:30N 38°42' W 009°25'0 0.0
2018-Jan-23 04:00N 38°42' W 009°25'0 0.0
2018-Jan-23 03:28N 38°42' W 009°25'0 0.0
2018-Jan-23 03:00N 38°42' W 009°25'0 0.0
2018-Jan-23 02:30N 38°42' W 009°25'0 0.0
2018-Jan-23 01:59N 38°42' W 009°25'0 0.0
2018-Jan-23 01:29N 38°42' W 009°25'0 0.0
2018-Jan-23 01:00N 38°42' W 009°25'0 0.0
2018-Jan-23 00:30N 38°42' W 009°25'0 0.0
2018-Jan-23 00:00N 38°42' W 009°25'5 9.8
2018-Jan-22 23:30N 38°38' W 009°21'5 9.7
2018-Jan-22 23:00N 38°42' W 009°25'0 0.0
2018-Jan-22 10:11N 38°42' W 009°25'0 0.7
2018-Jan-22 10:00N 38°42' W 009°25'4 8.5
2018-Jan-22 09:30N 38°37' W 009°24'917.4
2018-Jan-22 09:00N 38°42' W 009°14'0 0.0
2018-Jan-22 06:48N 38°42' W 009°14'0 0.0
2018-Jan-22 06:30N 38°42' W 009°14'0 0.2
2018-Jan-22 06:01N 38°42' W 009°14'918.0
2018-Jan-22 05:30N 38°36' W 009°23'714.4
2018-Jan-22 05:00N 38°41' W 009°16'2 3.7
2018-Jan-22 04:30N 38°42' W 009°14'0 0.0
2018-Jan-22 04:00N 38°42' W 009°14'0 0.0
2018-Jan-22 03:30N 38°42' W 009°14'0 0.0
2018-Jan-22 02:59N 38°42' W 009°14'0 0.0
2018-Jan-22 02:27N 38°42' W 009°14'0 0.0
2018-Jan-22 02:00N 38°42' W 009°14'0 0.0
2018-Jan-22 01:30N 38°42' W 009°14'0 0.0
2018-Jan-22 01:00N 38°42' W 009°14'0 0.0
2018-Jan-22 00:30N 38°42' W 009°14'0 0.0
2018-Jan-22 00:00N 38°42' W 009°14'1 1.8
2018-Jan-21 23:31N 38°41' W 009°13'1 1.7
2018-Jan-21 22:59N 38°42' W 009°14'0 0.0
2018-Jan-21 22:30N 38°42' W 009°14'0 0.0
2018-Jan-21 06:58N 38°42' W 009°14'511.3
2018-Jan-21 06:30N 38°39' W 009°20'3 5.0
2018-Jan-21 06:00N 38°38' W 009°23'4 0.4
2018-Jan-20 20:46N 38°42' W 009°25'2 9.6
2018-Jan-20 20:30N 38°39' W 009°25'2 0.7
2018-Jan-20 16:50N 38°42' W 009°25'413.1
2018-Jan-20 16:30N 38°37' W 009°24'4 0.2
2018-Jan-19 18:03N 38°42' W 009°25'0 0.0
2018-Jan-19 18:00N 38°42' W 009°25'1 2.4
2018-Jan-19 17:30N 38°40' W 009°24'1 2.4
2018-Jan-19 17:00N 38°42' W 009°25'0 0.0
2018-Jan-19 16:31N 38°42' W 009°25'0 0.0
2018-Jan-19 16:00N 38°42' W 009°25'5 9.4
2018-Jan-19 15:31N 38°37' W 009°22'5 9.2
2018-Jan-19 15:00N 38°42' W 009°25'0 0.0
2018-Jan-19 07:57N 38°42' W 009°25'1 3.1
2018-Jan-19 07:30N 38°40' W 009°24'1 2.7
2018-Jan-19 07:01N 38°42' W 009°25'0 0.0
2018-Jan-19 02:22N 38°42' W 009°25'3 7.9
2018-Jan-19 02:00N 38°39' W 009°25'3 6.0
2018-Jan-19 01:30N 38°42' W 009°25'0 0.0
2018-Jan-18 21:20N 38°42' W 009°25'2 6.5
2018-Jan-18 21:00N 38°39' W 009°25'2 4.5
2018-Jan-18 20:30N 38°42' W 009°25'1 2.0
2018-Jan-18 20:00N 38°41' W 009°25'1 0.2
2018-Jan-18 16:34N 38°42' W 009°25'0 3.3
2018-Jan-18 16:30N 38°42' W 009°25'816.9
2018-Jan-18 16:00N 38°42' W 009°14'0 0.2
2018-Jan-18 15:28N 38°42' W 009°14'0 0.0
2018-Jan-18 14:59N 38°42' W 009°14'0 0.0
2018-Jan-18 14:29N 38°42' W 009°14'0 0.0
2018-Jan-18 14:00N 38°42' W 009°14'3 5.6
2018-Jan-18 13:29N 38°42' W 009°10'2 4.5
2018-Jan-18 13:01N 38°41' W 009°13'1 2.0
2018-Jan-18 12:29N 38°42' W 009°14'0 0.0
2018-Jan-18 12:00N 38°42' W 009°14'0 0.0
2018-Jan-18 11:30N 38°42' W 009°14'0 0.0
2018-Jan-18 11:00N 38°42' W 009°14'0 0.0
2018-Jan-18 10:29N 38°42' W 009°14'0 0.0
2018-Jan-18 10:00N 38°42' W 009°14'0 0.0
2018-Jan-18 09:29N 38°42' W 009°14'0 0.0
2018-Jan-18 08:56N 38°42' W 009°14'1 3.3
2018-Jan-18 08:30N 38°42' W 009°12'  

Dump ship's entire track history